createdAt,value
2019-01-31T00:00:56.832Z,3.20
2019-01-31T00:03:44.406Z,3.19
2019-01-31T00:06:16.861Z,3.19
2019-01-31T00:09:04.617Z,3.18
2019-01-31T00:11:52.206Z,3.18
2019-01-31T00:14:39.849Z,3.11
2019-01-31T00:17:21.382Z,3.11
2019-01-31T00:20:08.707Z,3.07
2019-01-31T00:22:56.059Z,3.09
2019-01-31T00:25:34.327Z,3.11
2019-01-31T00:28:27.930Z,3.10
2019-01-31T00:31:35.129Z,3.10
2019-01-31T00:34:19.731Z,3.09
2019-01-31T00:36:52.268Z,3.08
2019-01-31T00:39:39.563Z,3.06
2019-01-31T00:42:14.628Z,3.00
2019-01-31T00:44:58.840Z,2.95
2019-01-31T00:47:43.052Z,2.93
2019-01-31T00:50:33.343Z,2.87
2019-01-31T00:53:12.923Z,2.76
2019-01-31T00:55:51.213Z,2.60
2019-01-31T00:58:32.690Z,2.41
2019-01-31T01:01:08.167Z,2.26
2019-01-31T01:03:57.358Z,2.09
2019-01-31T01:06:32.763Z,1.97
2019-01-31T01:09:18.453Z,1.95
2019-01-31T01:12:23.062Z,1.96
2019-01-31T01:14:58.388Z,2.03
2019-01-31T01:17:39.734Z,2.11
2019-01-31T01:20:33.403Z,2.22
2019-01-31T01:23:14.722Z,2.31
2019-01-31T01:25:55.419Z,2.42
2019-01-31T01:28:52.097Z,2.47
2019-01-31T01:31:36.261Z,2.54
2019-01-31T01:34:42.139Z,2.59
2019-01-31T01:37:32.517Z,2.64
2019-01-31T01:40:26.344Z,2.66
2019-01-31T01:43:10.412Z,2.66
2019-01-31T01:45:45.672Z,2.69
2019-01-31T01:48:18.145Z,2.68
2019-01-31T01:51:07.228Z,2.60
2019-01-31T01:54:00.587Z,2.45
2019-01-31T01:56:51.145Z,2.24
2019-01-31T01:59:28.826Z,2.00
2019-01-31T02:02:15.869Z,1.77
2019-01-31T02:05:04.633Z,1.73
2019-01-31T02:07:58.265Z,1.74
2019-01-31T02:10:30.774Z,1.69
2019-01-31T02:13:31.645Z,1.62
2019-01-31T02:16:16.184Z,1.53
2019-01-31T02:18:51.615Z,1.38
2019-01-31T02:21:29.855Z,1.30
2019-01-31T02:24:08.006Z,1.21
2019-01-31T02:26:46.311Z,1.10
2019-01-31T02:29:31.058Z,1.01
2019-01-31T02:32:03.535Z,0.91
2019-01-31T02:34:54.213Z,0.83
2019-01-31T02:37:32.238Z,0.75
2019-01-31T02:40:13.472Z,0.64
2019-01-31T02:42:51.660Z,0.56
2019-01-31T02:45:32.921Z,0.50
2019-01-31T02:48:20.494Z,0.45
2019-01-31T02:50:55.465Z,0.40
2019-01-31T02:53:42.878Z,0.35
2019-01-31T02:56:27.070Z,0.32
2019-01-31T02:58:59.545Z,0.27
2019-01-31T03:01:40.791Z,0.25
2019-01-31T03:04:27.834Z,0.22
2019-01-31T03:07:23.965Z,0.16
2019-01-31T03:10:14.415Z,0.11
2019-01-31T03:13:07.971Z,0.13
2019-01-31T03:15:43.110Z,0.06
2019-01-31T03:18:15.995Z,0.03
2019-01-31T03:20:57.263Z,0.02
2019-01-31T03:23:48.007Z,-0.06
2019-01-31T03:26:23.309Z,-0.11
2019-01-31T03:29:01.640Z,-0.18
2019-01-31T03:31:43.001Z,-0.19
2019-01-31T03:34:48.886Z,-0.20
2019-01-31T03:37:35.747Z,-0.23
2019-01-31T03:40:13.928Z,-0.19
2019-01-31T03:42:58.606Z,-0.21
2019-01-31T03:45:50.674Z,-0.22
2019-01-31T03:48:31.883Z,-0.20
2019-01-31T03:51:10.006Z,-0.08
2019-01-31T03:53:57.788Z,-0.08
2019-01-31T03:56:32.729Z,-0.03
2019-01-31T03:59:08.851Z,0.10
2019-01-31T04:01:50.340Z,0.28
2019-01-31T04:04:44.008Z,0.43
2019-01-31T04:07:13.204Z,0.62
2019-01-31T04:09:42.554Z,0.76
2019-01-31T04:12:11.737Z,0.91
2019-01-31T04:14:41.001Z,1.02
2019-01-31T04:17:10.185Z,1.17
2019-01-31T04:19:39.426Z,1.27
2019-01-31T04:22:08.673Z,1.38
2019-01-31T04:24:37.963Z,1.43
2019-01-31T04:27:07.193Z,1.50
2019-01-31T04:29:36.424Z,1.55
2019-01-31T04:32:05.660Z,1.59
2019-01-31T04:34:34.852Z,1.63
2019-01-31T04:37:04.115Z,1.67
2019-01-31T04:39:34.274Z,1.72
2019-01-31T04:42:04.221Z,1.79
2019-01-31T04:44:33.418Z,1.87
2019-01-31T04:47:02.654Z,1.89
2019-01-31T04:49:31.848Z,1.92
2019-01-31T04:52:01.104Z,1.94
2019-01-31T04:54:30.377Z,1.98
2019-01-31T04:57:00.648Z,2.02
2019-01-31T04:59:29.873Z,2.03
2019-01-31T05:01:59.118Z,2.05
2019-01-31T05:04:28.337Z,2.08
2019-01-31T05:06:57.561Z,2.10
2019-01-31T05:09:26.786Z,2.11
2019-01-31T05:11:56.005Z,2.13
2019-01-31T05:14:25.224Z,2.13
2019-01-31T05:16:54.556Z,2.11
2019-01-31T05:19:23.796Z,2.04
2019-01-31T05:21:52.982Z,2.00
2019-01-31T05:24:22.237Z,2.01
2019-01-31T05:26:51.450Z,2.01
2019-01-31T05:29:20.675Z,1.97
2019-01-31T05:31:49.921Z,1.94
2019-01-31T05:34:19.144Z,1.91
2019-01-31T05:36:49.445Z,1.89
2019-01-31T05:39:18.646Z,1.88
2019-01-31T05:41:47.876Z,1.83
2019-01-31T05:44:17.064Z,1.75
2019-01-31T05:46:46.294Z,1.64
2019-01-31T05:49:15.481Z,1.60
2019-01-31T05:51:44.786Z,1.55
2019-01-31T05:54:13.929Z,1.51
2019-01-31T05:56:43.154Z,1.37
2019-01-31T05:59:12.345Z,1.21
2019-01-31T06:01:41.650Z,1.03
2019-01-31T06:04:10.873Z,0.88
2019-01-31T06:06:40.124Z,0.76
2019-01-31T06:09:09.481Z,0.71
2019-01-31T06:11:38.732Z,0.56
2019-01-31T06:14:07.979Z,0.47
2019-01-31T06:16:37.173Z,0.34
2019-01-31T06:19:06.375Z,0.25
2019-01-31T06:21:35.592Z,0.17
2019-01-31T06:24:04.789Z,0.09
2019-01-31T06:26:34.986Z,0.01
2019-01-31T06:29:04.263Z,-0.09
2019-01-31T06:31:33.458Z,-0.07
2019-01-31T06:34:02.709Z,-0.12
2019-01-31T06:36:31.932Z,-0.13
2019-01-31T06:39:01.244Z,-0.19
2019-01-31T06:41:31.964Z,-0.25
2019-01-31T06:44:01.199Z,-0.32
2019-01-31T06:46:30.433Z,-0.35
2019-01-31T06:48:59.761Z,-0.39
2019-01-31T06:51:28.960Z,-0.43
2019-01-31T06:53:58.211Z,-0.39
2019-01-31T06:56:27.411Z,-0.22
2019-01-31T06:58:56.640Z,0.04
2019-01-31T07:01:25.984Z,0.29
2019-01-31T07:03:55.173Z,0.55
2019-01-31T07:06:24.405Z,0.77
2019-01-31T07:08:53.653Z,0.95
2019-01-31T07:11:29.593Z,1.13
2019-01-31T07:13:53.777Z,1.32
2019-01-31T07:16:23.015Z,1.46
2019-01-31T07:18:52.233Z,1.59
2019-01-31T07:21:21.468Z,1.71
2019-01-31T07:23:50.671Z,1.73
2019-01-31T07:26:19.867Z,1.88
2019-01-31T07:28:49.098Z,1.95
2019-01-31T07:31:18.354Z,2.05
2019-01-31T07:33:47.581Z,2.13
2019-01-31T07:36:16.810Z,2.19
2019-01-31T07:38:46.007Z,2.26
2019-01-31T07:41:15.231Z,2.29
2019-01-31T07:43:46.794Z,2.34
2019-01-31T07:46:15.339Z,2.40
2019-01-31T07:48:44.523Z,2.47
2019-01-31T07:51:13.758Z,2.56
2019-01-31T07:53:43.003Z,2.60
2019-01-31T07:56:12.193Z,2.66
2019-01-31T07:58:41.395Z,2.66
2019-01-31T08:01:10.613Z,2.70
2019-01-31T08:03:40.745Z,2.75
2019-01-31T08:06:10.986Z,2.80
2019-01-31T08:08:40.215Z,2.86
2019-01-31T08:11:09.417Z,2.99
2019-01-31T08:13:38.663Z,3.15
2019-01-31T08:16:07.928Z,3.35
2019-01-31T08:18:37.163Z,3.30
2019-01-31T08:21:06.356Z,3.18
2019-01-31T08:23:35.596Z,3.05
2019-01-31T08:26:04.907Z,2.95
2019-01-31T08:28:34.191Z,2.91
2019-01-31T08:31:04.133Z,2.85
2019-01-31T08:33:33.361Z,2.80
2019-01-31T08:36:02.666Z,2.73
2019-01-31T08:38:31.911Z,2.68
2019-01-31T08:41:01.086Z,2.67
2019-01-31T08:43:30.326Z,2.62
2019-01-31T08:45:59.522Z,2.63
2019-01-31T08:48:28.722Z,2.59
2019-01-31T08:50:57.960Z,2.56
2019-01-31T08:53:27.154Z,2.56
2019-01-31T08:55:57.480Z,2.59
2019-01-31T08:58:26.614Z,2.64
2019-01-31T09:00:55.838Z,2.63
2019-01-31T09:03:25.066Z,2.63
2019-01-31T09:05:54.258Z,2.64
2019-01-31T09:08:23.530Z,2.65
2019-01-31T09:10:52.765Z,2.70
2019-01-31T09:13:22.415Z,2.74
2019-01-31T09:15:51.598Z,2.76
2019-01-31T09:18:21.779Z,2.77
2019-01-31T09:20:54.259Z,2.84
2019-01-31T09:23:42.013Z,2.88
2019-01-31T09:26:19.928Z,2.90
2019-01-31T09:29:09.056Z,2.95
2019-01-31T09:32:01.057Z,2.98
2019-01-31T09:34:48.634Z,3.03
2019-01-31T09:37:40.520Z,3.10
2019-01-31T09:40:19.013Z,3.16
2019-01-31T09:42:54.418Z,3.24
2019-01-31T09:45:41.829Z,3.26
2019-01-31T09:48:16.916Z,3.28
2019-01-31T09:51:01.116Z,3.37
2019-01-31T09:53:42.785Z,3.43
2019-01-31T09:56:15.237Z,3.50
2019-01-31T09:58:48.043Z,3.51
2019-01-31T10:01:29.369Z,3.56
2019-01-31T10:04:17.080Z,3.59
2019-01-31T10:06:52.284Z,3.64
2019-01-31T10:09:30.676Z,3.64
2019-01-31T10:12:18.314Z,3.65
2019-01-31T10:14:50.804Z,3.72
2019-01-31T10:17:38.363Z,3.74
2019-01-31T10:20:33.805Z,3.80
2019-01-31T10:23:12.229Z,3.83
2019-01-31T10:25:53.360Z,3.84
2019-01-31T10:28:53.972Z,3.86
2019-01-31T10:31:49.016Z,3.89
2019-01-31T10:34:36.196Z,3.93
2019-01-31T10:37:14.670Z,3.98
2019-01-31T10:39:58.936Z,4.03
2019-01-31T10:42:34.022Z,4.05
2019-01-31T10:45:24.710Z,4.06
2019-01-31T10:48:11.682Z,4.12
2019-01-31T10:50:44.125Z,4.18
2019-01-31T10:53:25.401Z,4.19
2019-01-31T10:56:23.674Z,4.25
2019-01-31T10:59:14.328Z,4.31
2019-01-31T11:02:12.584Z,4.30
2019-01-31T11:05:13.739Z,4.33
2019-01-31T11:07:55.090Z,4.39
2019-01-31T11:10:33.523Z,4.39
2019-01-31T11:13:23.681Z,4.45
2019-01-31T11:16:04.694Z,4.46
2019-01-31T11:18:42.840Z,4.46
2019-01-31T11:21:31.700Z,4.44
2019-01-31T11:24:20.930Z,4.43
2019-01-31T11:26:59.110Z,4.46
2019-01-31T11:29:43.704Z,4.52
2019-01-31T11:32:31.124Z,4.54
2019-01-31T11:35:26.152Z,4.59
2019-01-31T11:38:18.000Z,4.59
2019-01-31T11:40:53.245Z,4.63
2019-01-31T11:43:37.558Z,4.63
2019-01-31T11:46:15.889Z,4.64
2019-01-31T11:48:51.138Z,4.60
2019-01-31T11:51:49.510Z,4.60
2019-01-31T11:54:28.096Z,4.61
2019-01-31T11:57:09.643Z,4.62
2019-01-31T11:59:38.941Z,4.64
2019-01-31T12:02:08.263Z,4.63
2019-01-31T12:04:37.501Z,4.62
2019-01-31T12:07:06.697Z,4.58
2019-01-31T12:09:35.948Z,4.57
2019-01-31T12:12:05.138Z,4.60
2019-01-31T12:14:34.387Z,4.58
2019-01-31T12:17:03.942Z,4.57
2019-01-31T12:19:33.271Z,4.59
2019-01-31T12:22:02.459Z,4.62
2019-01-31T12:24:31.692Z,4.60
2019-01-31T12:27:00.908Z,4.58
2019-01-31T12:29:30.185Z,4.54
2019-01-31T12:31:59.517Z,4.56
2019-01-31T12:34:28.712Z,4.55
2019-01-31T12:36:58.016Z,4.54
2019-01-31T12:39:27.254Z,4.53
2019-01-31T12:41:56.445Z,4.57
2019-01-31T12:44:25.808Z,4.59
2019-01-31T12:46:55.034Z,4.60
2019-01-31T12:49:24.382Z,4.58
2019-01-31T12:51:53.642Z,4.58
2019-01-31T12:54:22.870Z,4.57
2019-01-31T12:56:52.108Z,4.59
2019-01-31T12:59:22.406Z,4.56
2019-01-31T13:01:52.168Z,4.61
2019-01-31T13:04:21.475Z,4.58
2019-01-31T13:06:52.235Z,4.56
2019-01-31T13:09:21.468Z,4.53
2019-01-31T13:11:51.349Z,4.57
2019-01-31T13:14:20.612Z,4.60
2019-01-31T13:16:49.858Z,4.60
2019-01-31T13:19:19.035Z,4.59
2019-01-31T13:21:48.266Z,4.56
2019-01-31T13:24:17.576Z,4.46
2019-01-31T13:26:46.764Z,4.47
2019-01-31T13:29:16.002Z,4.46
2019-01-31T13:31:45.308Z,4.45
2019-01-31T13:34:14.534Z,4.43
2019-01-31T13:36:43.727Z,4.43
2019-01-31T13:39:13.993Z,4.42
2019-01-31T13:41:43.325Z,4.37
2019-01-31T13:44:12.535Z,4.33
2019-01-31T13:46:41.722Z,4.34
2019-01-31T13:49:10.975Z,4.31
2019-01-31T13:51:40.145Z,4.31
2019-01-31T13:54:09.381Z,4.24
2019-01-31T13:56:45.679Z,4.20
2019-01-31T13:59:09.558Z,4.19
2019-01-31T14:01:38.753Z,4.19
2019-01-31T14:04:07.938Z,4.13
2019-01-31T14:06:37.176Z,4.12
2019-01-31T14:09:07.668Z,4.09
2019-01-31T14:11:36.859Z,4.11
2019-01-31T14:14:09.260Z,4.13
2019-01-31T14:16:47.257Z,4.13
2019-01-31T14:19:07.905Z,4.05
2019-01-31T14:21:37.140Z,4.02
2019-01-31T14:24:06.320Z,3.98
2019-01-31T14:26:35.550Z,3.94
2019-01-31T14:29:05.600Z,3.86
2019-01-31T14:31:34.821Z,3.86
2019-01-31T14:34:04.106Z,3.85
2019-01-31T14:36:33.360Z,3.81
2019-01-31T14:39:02.540Z,3.75
2019-01-31T14:41:33.555Z,3.66
2019-01-31T14:44:02.905Z,3.65
2019-01-31T14:46:32.124Z,3.61
2019-01-31T14:49:02.442Z,3.66
2019-01-31T14:51:31.793Z,3.67
2019-01-31T14:54:01.049Z,3.64
2019-01-31T14:56:30.235Z,3.57
2019-01-31T14:58:59.530Z,3.50
2019-01-31T15:01:28.774Z,3.39
2019-01-31T15:03:58.004Z,3.30
2019-01-31T15:06:27.232Z,3.27
2019-01-31T15:08:56.419Z,3.21
2019-01-31T15:11:25.659Z,3.10
2019-01-31T15:13:54.845Z,3.03
2019-01-31T15:16:24.082Z,3.04
2019-01-31T15:18:53.265Z,2.93
2019-01-31T15:21:22.495Z,2.80
2019-01-31T15:23:51.762Z,2.75
2019-01-31T15:26:21.000Z,2.68
2019-01-31T15:28:50.186Z,2.62
2019-01-31T15:31:19.415Z,2.60
2019-01-31T15:33:48.598Z,2.56
2019-01-31T15:36:17.828Z,2.46
2019-01-31T15:38:47.057Z,2.48
2019-01-31T15:41:16.337Z,2.38
2019-01-31T15:43:45.556Z,2.44
2019-01-31T15:46:17.784Z,2.37
2019-01-31T15:48:45.676Z,2.28
2019-01-31T15:51:14.909Z,2.24
2019-01-31T15:53:44.158Z,2.17
2019-01-31T15:56:13.484Z,2.11
2019-01-31T15:58:42.642Z,2.06
2019-01-31T16:01:11.835Z,1.93
2019-01-31T16:03:41.130Z,1.80
2019-01-31T16:06:10.311Z,1.72
2019-01-31T16:08:39.484Z,1.66
2019-01-31T16:11:08.749Z,1.56
2019-01-31T16:13:37.921Z,1.52
2019-01-31T16:16:07.296Z,1.48
2019-01-31T16:18:37.178Z,1.42
2019-01-31T16:21:06.412Z,1.36
2019-01-31T16:23:35.599Z,1.30
2019-01-31T16:26:04.841Z,1.29
2019-01-31T16:28:34.055Z,1.23
2019-01-31T16:31:04.309Z,1.16
2019-01-31T16:33:33.880Z,1.11
2019-01-31T16:36:04.542Z,1.10
2019-01-31T16:38:33.919Z,1.05
2019-01-31T16:41:04.287Z,0.97
2019-01-31T16:43:33.476Z,0.94
2019-01-31T16:46:02.785Z,0.90
2019-01-31T16:48:31.987Z,0.89
2019-01-31T16:51:01.224Z,0.85
2019-01-31T16:53:30.465Z,0.79
2019-01-31T16:55:59.718Z,0.75
2019-01-31T16:58:28.948Z,0.74
2019-01-31T17:00:58.185Z,0.72
2019-01-31T17:03:27.409Z,0.72
2019-01-31T17:05:56.598Z,0.70
2019-01-31T17:08:25.893Z,0.73
2019-01-31T17:10:55.082Z,0.66
2019-01-31T17:13:24.322Z,0.66
2019-01-31T17:15:53.555Z,0.59
2019-01-31T17:18:22.788Z,0.53
2019-01-31T17:20:52.143Z,0.48
2019-01-31T17:23:21.506Z,0.43
2019-01-31T17:25:50.705Z,0.40
2019-01-31T17:28:20.115Z,0.42
2019-01-31T17:30:49.299Z,0.43
2019-01-31T17:33:18.529Z,0.37
2019-01-31T17:35:47.784Z,0.42
2019-01-31T17:38:16.969Z,0.36
2019-01-31T17:40:47.251Z,0.32
2019-01-31T17:43:16.485Z,0.26
2019-01-31T17:45:46.077Z,0.23
2019-01-31T17:48:16.634Z,0.18
2019-01-31T17:50:45.786Z,0.15
2019-01-31T17:53:15.032Z,0.10
2019-01-31T17:55:45.190Z,0.04
2019-01-31T17:58:14.423Z,-0.02
2019-01-31T18:00:47.993Z,-0.05
2019-01-31T18:03:17.314Z,-0.11
2019-01-31T18:05:46.586Z,-0.14
2019-01-31T18:08:15.786Z,-0.17
2019-01-31T18:10:44.981Z,-0.19
2019-01-31T18:13:14.232Z,-0.23
2019-01-31T18:15:43.427Z,-0.27
2019-01-31T18:18:13.024Z,-0.28
2019-01-31T18:20:42.271Z,-0.29
2019-01-31T18:23:11.505Z,-0.28
2019-01-31T18:25:40.700Z,-0.27
2019-01-31T18:28:12.408Z,-0.29
2019-01-31T18:30:40.863Z,-0.31
2019-01-31T18:33:10.101Z,-0.24
2019-01-31T18:35:39.306Z,-0.24
2019-01-31T18:38:08.534Z,-0.24
2019-01-31T18:40:37.804Z,-0.22
2019-01-31T18:43:07.042Z,-0.20
2019-01-31T18:45:36.644Z,-0.07
2019-01-31T18:48:06.414Z,0.09
2019-01-31T18:50:40.518Z,0.04
2019-01-31T18:53:09.827Z,0.15
2019-01-31T18:55:39.020Z,0.28
2019-01-31T18:58:09.312Z,0.32
2019-01-31T19:00:46.216Z,0.45
2019-01-31T19:03:15.468Z,0.41
2019-01-31T19:05:44.865Z,0.48
2019-01-31T19:08:14.058Z,0.47
2019-01-31T19:10:43.944Z,0.46
2019-01-31T19:13:13.992Z,0.50
2019-01-31T19:15:43.191Z,0.52
2019-01-31T19:18:12.418Z,0.60
2019-01-31T19:20:41.613Z,0.64
2019-01-31T19:23:11.951Z,0.66
2019-01-31T19:25:41.154Z,0.73
2019-01-31T19:28:13.193Z,0.63
2019-01-31T19:30:41.324Z,0.66
2019-01-31T19:33:10.606Z,0.60
2019-01-31T19:35:40.105Z,0.52
2019-01-31T19:38:09.364Z,0.51
2019-01-31T19:40:40.698Z,0.60
2019-01-31T19:43:09.965Z,0.56
2019-01-31T19:45:44.174Z,0.53
2019-01-31T19:48:13.414Z,0.61
2019-01-31T19:50:43.499Z,0.65
2019-01-31T19:53:13.008Z,0.74
2019-01-31T19:55:42.348Z,0.63
2019-01-31T19:58:11.597Z,0.48
2019-01-31T20:00:40.917Z,0.42
2019-01-31T20:03:10.109Z,0.44
2019-01-31T20:05:39.333Z,0.53
2019-01-31T20:08:08.571Z,0.51
2019-01-31T20:10:37.887Z,0.51
2019-01-31T20:13:07.075Z,0.47
2019-01-31T20:15:36.304Z,0.52
2019-01-31T20:18:05.536Z,0.58
2019-01-31T20:20:34.721Z,0.65
2019-01-31T20:23:04.132Z,0.75
2019-01-31T20:25:33.476Z,0.86
2019-01-31T20:28:02.670Z,0.86
2019-01-31T20:30:33.273Z,0.86
2019-01-31T20:33:02.653Z,0.86
2019-01-31T20:35:31.984Z,0.92
2019-01-31T20:38:01.606Z,0.89
2019-01-31T20:40:34.170Z,0.87
2019-01-31T20:43:04.770Z,0.86
2019-01-31T20:45:33.998Z,0.86
2019-01-31T20:48:03.344Z,0.77
2019-01-31T20:50:37.829Z,0.78
2019-01-31T20:53:07.448Z,0.77
2019-01-31T20:55:36.696Z,0.68
2019-01-31T20:58:05.951Z,0.63
2019-01-31T21:00:38.398Z,0.52
2019-01-31T21:03:08.346Z,0.56
2019-01-31T21:05:38.719Z,0.60
2019-01-31T21:08:08.731Z,0.64
2019-01-31T21:10:37.958Z,0.67
2019-01-31T21:13:07.714Z,0.71
2019-01-31T21:15:37.019Z,0.65
2019-01-31T21:18:06.400Z,0.56
2019-01-31T21:20:35.636Z,0.65
2019-01-31T21:23:05.423Z,0.64
2019-01-31T21:25:34.803Z,0.62
2019-01-31T21:28:04.305Z,0.62
2019-01-31T21:30:35.430Z,0.64
2019-01-31T21:33:05.069Z,0.52
2019-01-31T21:35:34.530Z,0.54
2019-01-31T21:38:03.900Z,0.53
2019-01-31T21:40:34.731Z,0.50
2019-01-31T21:43:05.019Z,0.58
2019-01-31T21:45:34.252Z,0.51
2019-01-31T21:48:03.517Z,0.46
2019-01-31T21:50:33.030Z,0.45
2019-01-31T21:53:02.217Z,0.60
2019-01-31T21:55:32.145Z,0.60
2019-01-31T21:58:01.334Z,0.61
2019-01-31T22:00:32.986Z,0.57
2019-01-31T22:03:02.168Z,0.57
2019-01-31T22:05:31.483Z,0.49
2019-01-31T22:08:00.723Z,0.56
2019-01-31T22:10:30.146Z,0.51
2019-01-31T22:12:59.345Z,0.47
2019-01-31T22:15:34.024Z,0.43
2019-01-31T22:18:03.224Z,0.52
2019-01-31T22:20:32.523Z,0.52
2019-01-31T22:23:01.750Z,0.49
2019-01-31T22:25:30.951Z,0.53
2019-01-31T22:28:00.338Z,0.44
2019-01-31T22:30:35.138Z,0.44
2019-01-31T22:33:05.140Z,0.43
2019-01-31T22:35:34.328Z,0.44
2019-01-31T22:38:04.242Z,0.39
2019-01-31T22:40:33.457Z,0.33
2019-01-31T22:43:02.648Z,0.34
2019-01-31T22:45:31.870Z,0.36
2019-01-31T22:48:01.128Z,0.25
2019-01-31T22:50:30.346Z,0.19
2019-01-31T22:52:59.544Z,0.21
2019-01-31T22:55:28.731Z,0.30
2019-01-31T22:57:57.962Z,0.19
2019-01-31T23:00:31.736Z,0.19
2019-01-31T23:03:02.548Z,0.08
2019-01-31T23:05:31.782Z,-0.05
2019-01-31T23:08:00.971Z,-0.05
2019-01-31T23:10:30.222Z,-0.10
2019-01-31T23:12:59.433Z,-0.16
2019-01-31T23:15:28.658Z,-0.30
2019-01-31T23:17:57.854Z,-0.41
2019-01-31T23:20:27.084Z,-0.51
2019-01-31T23:22:56.326Z,-0.62
2019-01-31T23:25:25.562Z,-0.64
2019-01-31T23:27:54.813Z,-0.70
2019-01-31T23:30:24.018Z,-0.79
2019-01-31T23:32:53.253Z,-0.82
2019-01-31T23:35:22.497Z,-0.92
2019-01-31T23:37:51.696Z,-0.98
2019-01-31T23:40:20.889Z,-1.00
2019-01-31T23:42:50.117Z,-1.04
2019-01-31T23:45:19.800Z,-1.07
2019-01-31T23:47:49.366Z,-1.09
2019-01-31T23:50:19.656Z,-1.07
2019-01-31T23:52:48.884Z,-1.11
2019-01-31T23:55:18.119Z,-1.15
2019-01-31T23:57:47.310Z,-1.15
